sensor_id;sensor_type;location;lat;lon;timestamp;P1;durP1;ratioP1;P2;durP2;ratioP2
78004;SDS011;67209;51.698;-0.292;2023-02-28T00:01:11;8.48;;;2.40;;
78004;SDS011;67209;51.698;-0.292;2023-02-28T00:03:38;5.65;;;2.28;;
78004;SDS011;67209;51.698;-0.292;2023-02-28T00:06:04;6.82;;;2.30;;
78004;SDS011;67209;51.698;-0.292;2023-02-28T00:08:31;3.38;;;2.05;;
78004;SDS011;67209;51.698;-0.292;2023-02-28T00:11:00;5.07;;;2.13;;
78004;SDS011;67209;51.698;-0.292;2023-02-28T00:13:26;4.47;;;1.90;;
78004;SDS011;67209;51.698;-0.292;2023-02-28T00:16:26;5.80;;;1.85;;
78004;SDS011;67209;51.698;-0.292;2023-02-28T00:18:44;5.05;;;2.38;;
78004;SDS011;67209;51.698;-0.292;2023-02-28T00:21:12;6.93;;;1.98;;
78004;SDS011;67209;51.698;-0.292;2023-02-28T00:23:38;4.80;;;2.38;;
78004;SDS011;67209;51.698;-0.292;2023-02-28T00:26:04;7.10;;;2.42;;
78004;SDS011;67209;51.698;-0.292;2023-02-28T00:28:31;7.80;;;2.25;;
78004;SDS011;67209;51.698;-0.292;2023-02-28T00:30:57;5.70;;;2.22;;
78004;SDS011;67209;51.698;-0.292;2023-02-28T00:33:24;5.90;;;2.13;;
78004;SDS011;67209;51.698;-0.292;2023-02-28T00:35:50;6.45;;;2.30;;
78004;SDS011;67209;51.698;-0.292;2023-02-28T00:38:16;5.43;;;2.65;;
78004;SDS011;67209;51.698;-0.292;2023-02-28T00:40:42;5.80;;;2.22;;
78004;SDS011;67209;51.698;-0.292;2023-02-28T00:43:08;6.45;;;2.40;;
78004;SDS011;67209;51.698;-0.292;2023-02-28T00:45:34;5.32;;;2.25;;
78004;SDS011;67209;51.698;-0.292;2023-02-28T00:48:00;7.78;;;2.60;;
78004;SDS011;67209;51.698;-0.292;2023-02-28T00:50:26;4.65;;;2.35;;
78004;SDS011;67209;51.698;-0.292;2023-02-28T00:52:53;6.75;;;2.50;;
78004;SDS011;67209;51.698;-0.292;2023-02-28T00:55:19;5.93;;;2.47;;
78004;SDS011;67209;51.698;-0.292;2023-02-28T00:57:45;5.65;;;2.60;;
78004;SDS011;67209;51.698;-0.292;2023-02-28T01:00:11;7.05;;;2.22;;
78004;SDS011;67209;51.698;-0.292;2023-02-28T01:02:37;6.97;;;2.63;;
78004;SDS011;67209;51.698;-0.292;2023-02-28T01:05:03;3.63;;;2.30;;
78004;SDS011;67209;51.698;-0.292;2023-02-28T01:07:29;5.07;;;2.75;;
78004;SDS011;67209;51.698;-0.292;2023-02-28T01:09:55;9.52;;;2.47;;
78004;SDS011;67209;51.698;-0.292;2023-02-28T01:12:21;4.57;;;2.92;;
78004;SDS011;67209;51.698;-0.292;2023-02-28T01:14:47;8.70;;;2.60;;
78004;SDS011;67209;51.698;-0.292;2023-02-28T01:17:13;8.02;;;2.78;;
78004;SDS011;67209;51.698;-0.292;2023-02-28T01:19:39;5.72;;;2.60;;
78004;SDS011;67209;51.698;-0.292;2023-02-28T01:22:06;9.68;;;3.00;;
78004;SDS011;67209;51.698;-0.292;2023-02-28T01:24:32;6.78;;;3.08;;
78004;SDS011;67209;51.698;-0.292;2023-02-28T01:26:58;8.43;;;2.50;;
78004;SDS011;67209;51.698;-0.292;2023-02-28T01:29:24;5.05;;;2.20;;
78004;SDS011;67209;51.698;-0.292;2023-02-28T01:31:50;4.97;;;2.38;;
78004;SDS011;67209;51.698;-0.292;2023-02-28T01:34:16;7.43;;;2.70;;
78004;SDS011;67209;51.698;-0.292;2023-02-28T01:36:44;6.63;;;2.65;;
78004;SDS011;67209;51.698;-0.292;2023-02-28T01:39:10;11.43;;;3.58;;
78004;SDS011;67209;51.698;-0.292;2023-02-28T01:41:37;9.40;;;3.03;;
78004;SDS011;67209;51.698;-0.292;2023-02-28T01:44:54;9.27;;;3.15;;
78004;SDS011;67209;51.698;-0.292;2023-02-28T01:46:53;8.98;;;3.25;;
78004;SDS011;67209;51.698;-0.292;2023-02-28T01:49:19;7.10;;;2.92;;
78004;SDS011;67209;51.698;-0.292;2023-02-28T01:51:46;9.45;;;2.78;;
78004;SDS011;67209;51.698;-0.292;2023-02-28T01:54:31;7.10;;;3.05;;
78004;SDS011;67209;51.698;-0.292;2023-02-28T01:57:03;8.05;;;2.90;;
78004;SDS011;67209;51.698;-0.292;2023-02-28T01:59:32;13.65;;;3.42;;
78004;SDS011;67209;51.698;-0.292;2023-02-28T02:01:59;7.93;;;2.90;;
78004;SDS011;67209;51.698;-0.292;2023-02-28T02:04:27;6.60;;;2.75;;
78004;SDS011;67209;51.698;-0.292;2023-02-28T02:06:54;9.18;;;3.05;;
78004;SDS011;67209;51.698;-0.292;2023-02-28T02:09:20;9.18;;;3.83;;
78004;SDS011;67209;51.698;-0.292;2023-02-28T02:11:47;10.02;;;4.28;;
78004;SDS011;67209;51.698;-0.292;2023-02-28T02:24:35;9.98;;;4.57;;
78004;SDS011;67209;51.698;-0.292;2023-02-28T02:34:52;7.80;;;3.90;;
78004;SDS011;67209;51.698;-0.292;2023-02-28T02:39:53;12.52;;;4.47;;
78004;SDS011;67209;51.698;-0.292;2023-02-28T02:42:29;9.45;;;4.03;;
78004;SDS011;67209;51.698;-0.292;2023-02-28T02:45:01;9.85;;;4.47;;
78004;SDS011;67209;51.698;-0.292;2023-02-28T02:47:29;12.18;;;5.00;;
78004;SDS011;67209;51.698;-0.292;2023-02-28T02:49:57;10.48;;;4.05;;
78004;SDS011;67209;51.698;-0.292;2023-02-28T02:52:30;8.15;;;4.03;;
78004;SDS011;67209;51.698;-0.292;2023-02-28T02:54:57;10.45;;;4.80;;
78004;SDS011;67209;51.698;-0.292;2023-02-28T02:57:26;12.07;;;5.30;;
78004;SDS011;67209;51.698;-0.292;2023-02-28T02:59:53;15.88;;;4.55;;
78004;SDS011;67209;51.698;-0.292;2023-02-28T03:02:20;11.98;;;4.15;;
78004;SDS011;67209;51.698;-0.292;2023-02-28T03:04:51;11.93;;;4.90;;
78004;SDS011;67209;51.698;-0.292;2023-02-28T03:07:18;9.70;;;4.43;;
78004;SDS011;67209;51.698;-0.292;2023-02-28T03:09:54;8.73;;;4.65;;
78004;SDS011;67209;51.698;-0.292;2023-02-28T03:12:20;11.20;;;5.22;;
78004;SDS011;67209;51.698;-0.292;2023-02-28T03:14:55;12.10;;;4.63;;
78004;SDS011;67209;51.698;-0.292;2023-02-28T03:17:25;12.32;;;5.30;;
78004;SDS011;67209;51.698;-0.292;2023-02-28T03:19:55;11.45;;;4.75;;
78004;SDS011;67209;51.698;-0.292;2023-02-28T03:27:41;13.70;;;4.38;;
78004;SDS011;67209;51.698;-0.292;2023-02-28T03:30:17;12.82;;;5.10;;
78004;SDS011;67209;51.698;-0.292;2023-02-28T03:32:59;15.60;;;4.93;;
78004;SDS011;67209;51.698;-0.292;2023-02-28T03:35:34;10.48;;;4.72;;
78004;SDS011;67209;51.698;-0.292;2023-02-28T03:38:10;14.88;;;5.50;;
78004;SDS011;67209;51.698;-0.292;2023-02-28T03:40:39;9.38;;;4.75;;
78004;SDS011;67209;51.698;-0.292;2023-02-28T03:43:08;12.80;;;5.40;;
78004;SDS011;67209;51.698;-0.292;2023-02-28T03:45:36;11.77;;;4.68;;
78004;SDS011;67209;51.698;-0.292;2023-02-28T03:48:08;10.52;;;4.65;;
78004;SDS011;67209;51.698;-0.292;2023-02-28T03:50:38;11.02;;;4.65;;
78004;SDS011;67209;51.698;-0.292;2023-02-28T03:55:38;10.68;;;4.13;;
78004;SDS011;67209;51.698;-0.292;2023-02-28T03:58:14;8.40;;;4.15;;
78004;SDS011;67209;51.698;-0.292;2023-02-28T04:00:43;11.77;;;5.55;;
78004;SDS011;67209;51.698;-0.292;2023-02-28T04:03:12;9.52;;;4.18;;
78004;SDS011;67209;51.698;-0.292;2023-02-28T04:06:13;10.45;;;4.10;;
78004;SDS011;67209;51.698;-0.292;2023-02-28T04:08:30;9.77;;;3.78;;
78004;SDS011;67209;51.698;-0.292;2023-02-28T04:10:59;18.92;;;4.28;;
78004;SDS011;67209;51.698;-0.292;2023-02-28T04:13:26;10.15;;;3.88;;
78004;SDS011;67209;51.698;-0.292;2023-02-28T04:15:52;9.05;;;4.18;;
78004;SDS011;67209;51.698;-0.292;2023-02-28T04:18:18;8.52;;;4.38;;
78004;SDS011;67209;51.698;-0.292;2023-02-28T04:20:44;11.32;;;4.20;;
78004;SDS011;67209;51.698;-0.292;2023-02-28T04:23:10;11.30;;;3.88;;
78004;SDS011;67209;51.698;-0.292;2023-02-28T04:25:36;9.60;;;3.75;;
78004;SDS011;67209;51.698;-0.292;2023-02-28T04:28:05;8.70;;;3.83;;
78004;SDS011;67209;51.698;-0.292;2023-02-28T04:30:31;7.35;;;4.07;;
78004;SDS011;67209;51.698;-0.292;2023-02-28T04:32:57;10.52;;;3.85;;
78004;SDS011;67209;51.698;-0.292;2023-02-28T04:35:23;10.13;;;4.47;;
78004;SDS011;67209;51.698;-0.292;2023-02-28T04:37:49;8.65;;;4.15;;
78004;SDS011;67209;51.698;-0.292;2023-02-28T04:40:15;10.60;;;4.07;;
78004;SDS011;67209;51.698;-0.292;2023-02-28T04:42:41;8.18;;;4.25;;
78004;SDS011;67209;51.698;-0.292;2023-02-28T04:45:07;9.70;;;3.72;;
78004;SDS011;67209;51.698;-0.292;2023-02-28T04:47:35;11.23;;;4.50;;
78004;SDS011;67209;51.698;-0.292;2023-02-28T04:50:01;8.00;;;3.83;;
78004;SDS011;67209;51.698;-0.292;2023-02-28T04:52:28;8.77;;;3.58;;
78004;SDS011;67209;51.698;-0.292;2023-02-28T04:54:54;9.18;;;3.58;;
78004;SDS011;67209;51.698;-0.292;2023-02-28T04:57:22;13.20;;;4.22;;
78004;SDS011;67209;51.698;-0.292;2023-02-28T04:59:48;9.57;;;4.70;;
78004;SDS011;67209;51.698;-0.292;2023-02-28T05:02:14;9.70;;;3.70;;
78004;SDS011;67209;51.698;-0.292;2023-02-28T05:04:40;9.40;;;4.22;;
78004;SDS011;67209;51.698;-0.292;2023-02-28T05:07:06;11.48;;;4.90;;
78004;SDS011;67209;51.698;-0.292;2023-02-28T05:09:32;9.73;;;4.00;;
78004;SDS011;67209;51.698;-0.292;2023-02-28T05:11:58;14.27;;;4.63;;
78004;SDS011;67209;51.698;-0.292;2023-02-28T05:14:24;10.40;;;4.38;;
78004;SDS011;67209;51.698;-0.292;2023-02-28T05:16:50;17.58;;;4.97;;
78004;SDS011;67209;51.698;-0.292;2023-02-28T05:19:16;16.15;;;4.82;;
78004;SDS011;67209;51.698;-0.292;2023-02-28T05:21:54;18.35;;;6.53;;
78004;SDS011;67209;51.698;-0.292;2023-02-28T05:24:20;12.40;;;5.00;;
78004;SDS011;67209;51.698;-0.292;2023-02-28T05:26:50;14.68;;;5.55;;
78004;SDS011;67209;51.698;-0.292;2023-02-28T05:29:17;19.50;;;6.15;;
78004;SDS011;67209;51.698;-0.292;2023-02-28T05:31:44;31.25;;;6.22;;
78004;SDS011;67209;51.698;-0.292;2023-02-28T05:34:10;23.65;;;5.97;;
78004;SDS011;67209;51.698;-0.292;2023-02-28T05:36:37;21.10;;;6.68;;
78004;SDS011;67209;51.698;-0.292;2023-02-28T05:39:05;20.02;;;6.30;;
78004;SDS011;67209;51.698;-0.292;2023-02-28T05:41:31;36.58;;;6.57;;
78004;SDS011;67209;51.698;-0.292;2023-02-28T05:43:57;52.35;;;7.13;;
78004;SDS011;67209;51.698;-0.292;2023-02-28T05:46:24;65.80;;;8.23;;
78004;SDS011;67209;51.698;-0.292;2023-02-28T05:48:50;106.45;;;9.45;;
78004;SDS011;67209;51.698;-0.292;2023-02-28T05:51:16;75.30;;;8.27;;
78004;SDS011;67209;51.698;-0.292;2023-02-28T05:53:43;71.55;;;7.88;;
78004;SDS011;67209;51.698;-0.292;2023-02-28T05:56:09;85.68;;;8.25;;
78004;SDS011;67209;51.698;-0.292;2023-02-28T05:58:35;67.57;;;7.35;;
78004;SDS011;67209;51.698;-0.292;2023-02-28T06:01:18;70.63;;;8.93;;
78004;SDS011;67209;51.698;-0.292;2023-02-28T06:03:45;51.65;;;7.55;;
78004;SDS011;67209;51.698;-0.292;2023-02-28T06:06:11;67.80;;;7.95;;
78004;SDS011;67209;51.698;-0.292;2023-02-28T06:08:36;74.35;;;8.52;;
78004;SDS011;67209;51.698;-0.292;2023-02-28T06:11:03;36.00;;;6.28;;
78004;SDS011;67209;51.698;-0.292;2023-02-28T06:13:29;24.13;;;5.45;;
78004;SDS011;67209;51.698;-0.292;2023-02-28T06:15:55;16.50;;;4.88;;
78004;SDS011;67209;51.698;-0.292;2023-02-28T06:18:21;10.55;;;5.57;;
78004;SDS011;67209;51.698;-0.292;2023-02-28T06:20:53;14.05;;;5.15;;
78004;SDS011;67209;51.698;-0.292;2023-02-28T06:23:20;9.48;;;3.85;;
78004;SDS011;67209;51.698;-0.292;2023-02-28T06:25:46;12.88;;;4.28;;
78004;SDS011;67209;51.698;-0.292;2023-02-28T06:28:12;15.88;;;4.80;;
78004;SDS011;67209;51.698;-0.292;2023-02-28T06:30:38;11.23;;;3.83;;
78004;SDS011;67209;51.698;-0.292;2023-02-28T06:33:04;6.43;;;3.58;;
78004;SDS011;67209;51.698;-0.292;2023-02-28T06:35:30;12.23;;;4.75;;
78004;SDS011;67209;51.698;-0.292;2023-02-28T06:37:56;13.30;;;4.40;;
78004;SDS011;67209;51.698;-0.292;2023-02-28T06:40:23;14.38;;;5.40;;
78004;SDS011;67209;51.698;-0.292;2023-02-28T06:42:49;11.80;;;5.28;;
78004;SDS011;67209;51.698;-0.292;2023-02-28T06:45:15;10.40;;;4.97;;
78004;SDS011;67209;51.698;-0.292;2023-02-28T06:47:41;9.80;;;4.22;;
78004;SDS011;67209;51.698;-0.292;2023-02-28T06:50:09;11.27;;;5.00;;
78004;SDS011;67209;51.698;-0.292;2023-02-28T06:52:35;11.52;;;4.85;;
78004;SDS011;67209;51.698;-0.292;2023-02-28T06:55:03;10.25;;;4.50;;
78004;SDS011;67209;51.698;-0.292;2023-02-28T06:57:29;11.00;;;4.30;;
78004;SDS011;67209;51.698;-0.292;2023-02-28T06:59:57;10.82;;;4.55;;
78004;SDS011;67209;51.698;-0.292;2023-02-28T07:02:23;10.18;;;4.20;;
78004;SDS011;67209;51.698;-0.292;2023-02-28T07:04:49;10.02;;;4.05;;
78004;SDS011;67209;51.698;-0.292;2023-02-28T07:07:15;11.05;;;4.80;;
78004;SDS011;67209;51.698;-0.292;2023-02-28T07:09:41;74.03;;;14.10;;
78004;SDS011;67209;51.698;-0.292;2023-02-28T07:12:07;9.25;;;3.85;;
78004;SDS011;67209;51.698;-0.292;2023-02-28T07:14:33;12.43;;;4.35;;
78004;SDS011;67209;51.698;-0.292;2023-02-28T07:16:59;11.70;;;4.25;;
78004;SDS011;67209;51.698;-0.292;2023-02-28T07:19:25;10.35;;;4.25;;
78004;SDS011;67209;51.698;-0.292;2023-02-28T07:21:51;99.03;;;9.90;;
78004;SDS011;67209;51.698;-0.292;2023-02-28T07:24:17;9.45;;;3.80;;
78004;SDS011;67209;51.698;-0.292;2023-02-28T07:26:43;8.38;;;3.75;;
78004;SDS011;67209;51.698;-0.292;2023-02-28T07:29:09;133.52;;;13.93;;
78004;SDS011;67209;51.698;-0.292;2023-02-28T07:31:36;7.28;;;3.50;;
78004;SDS011;67209;51.698;-0.292;2023-02-28T07:34:02;6.90;;;3.47;;
78004;SDS011;67209;51.698;-0.292;2023-02-28T07:36:28;8.18;;;3.30;;
78004;SDS011;67209;51.698;-0.292;2023-02-28T07:38:54;6.15;;;2.60;;
78004;SDS011;67209;51.698;-0.292;2023-02-28T07:41:20;43.47;;;7.07;;
78004;SDS011;67209;51.698;-0.292;2023-02-28T07:43:48;71.35;;;8.05;;
78004;SDS011;67209;51.698;-0.292;2023-02-28T07:46:15;5.93;;;2.83;;
78004;SDS011;67209;51.698;-0.292;2023-02-28T07:48:41;10.55;;;3.63;;
78004;SDS011;67209;51.698;-0.292;2023-02-28T07:51:08;6.50;;;2.67;;
78004;SDS011;67209;51.698;-0.292;2023-02-28T07:53:34;6.10;;;2.85;;
78004;SDS011;67209;51.698;-0.292;2023-02-28T07:56:00;7.70;;;3.03;;
78004;SDS011;67209;51.698;-0.292;2023-02-28T07:58:27;16.92;;;4.07;;
78004;SDS011;67209;51.698;-0.292;2023-02-28T08:00:53;15.77;;;3.60;;
78004;SDS011;67209;51.698;-0.292;2023-02-28T08:03:20;15.48;;;3.47;;
78004;SDS011;67209;51.698;-0.292;2023-02-28T08:05:46;9.77;;;2.85;;
78004;SDS011;67209;51.698;-0.292;2023-02-28T08:08:12;49.83;;;5.70;;
78004;SDS011;67209;51.698;-0.292;2023-02-28T08:10:38;6.25;;;2.20;;
78004;SDS011;67209;51.698;-0.292;2023-02-28T08:13:04;3.92;;;1.63;;
78004;SDS011;67209;51.698;-0.292;2023-02-28T08:15:30;10.68;;;2.25;;
78004;SDS011;67209;51.698;-0.292;2023-02-28T08:17:56;5.80;;;2.35;;
78004;SDS011;67209;51.698;-0.292;2023-02-28T08:20:23;19.85;;;4.10;;
78004;SDS011;67209;51.698;-0.292;2023-02-28T08:22:49;7.63;;;2.78;;
78004;SDS011;67209;51.698;-0.292;2023-02-28T08:25:15;22.80;;;3.33;;
78004;SDS011;67209;51.698;-0.292;2023-02-28T08:27:41;30.00;;;4.25;;
78004;SDS011;67209;51.698;-0.292;2023-02-28T08:30:09;22.52;;;4.38;;
78004;SDS011;67209;51.698;-0.292;2023-02-28T08:32:36;22.85;;;3.95;;
78004;SDS011;67209;51.698;-0.292;2023-02-28T08:35:02;5.70;;;2.75;;
78004;SDS011;67209;51.698;-0.292;2023-02-28T08:37:28;42.88;;;4.85;;
78004;SDS011;67209;51.698;-0.292;2023-02-28T08:39:54;68.88;;;7.97;;
78004;SDS011;67209;51.698;-0.292;2023-02-28T08:42:20;27.42;;;4.75;;
78004;SDS011;67209;51.698;-0.292;2023-02-28T08:44:46;25.05;;;3.97;;
78004;SDS011;67209;51.698;-0.292;2023-02-28T08:47:12;4.13;;;1.88;;
78004;SDS011;67209;51.698;-0.292;2023-02-28T08:49:38;23.67;;;3.47;;
78004;SDS011;67209;51.698;-0.292;2023-02-28T08:52:04;4.72;;;1.67;;
78004;SDS011;67209;51.698;-0.292;2023-02-28T08:54:31;7.50;;;1.60;;
78004;SDS011;67209;51.698;-0.292;2023-02-28T08:56:58;8.98;;;2.45;;
78004;SDS011;67209;51.698;-0.292;2023-02-28T08:59:24;8.25;;;1.92;;
78004;SDS011;67209;51.698;-0.292;2023-02-28T09:01:50;4.60;;;1.80;;
78004;SDS011;67209;51.698;-0.292;2023-02-28T09:04:16;8.38;;;1.92;;
78004;SDS011;67209;51.698;-0.292;2023-02-28T09:06:42;17.00;;;2.92;;
78004;SDS011;67209;51.698;-0.292;2023-02-28T09:09:09;21.10;;;2.88;;
78004;SDS011;67209;51.698;-0.292;2023-02-28T09:11:35;11.07;;;2.50;;
78004;SDS011;67209;51.698;-0.292;2023-02-28T09:14:02;58.05;;;4.93;;
78004;SDS011;67209;51.698;-0.292;2023-02-28T09:16:28;2.92;;;1.25;;
78004;SDS011;67209;51.698;-0.292;2023-02-28T09:18:54;9.23;;;2.15;;
78004;SDS011;67209;51.698;-0.292;2023-02-28T09:21:20;18.83;;;2.30;;
78004;SDS011;67209;51.698;-0.292;2023-02-28T09:23:47;3.30;;;1.60;;
78004;SDS011;67209;51.698;-0.292;2023-02-28T09:26:14;3.25;;;1.80;;
78004;SDS011;67209;51.698;-0.292;2023-02-28T09:28:41;1.02;;;0.77;;
78004;SDS011;67209;51.698;-0.292;2023-02-28T09:31:10;13.35;;;2.33;;
78004;SDS011;67209;51.698;-0.292;2023-02-28T09:33:37;2.83;;;1.77;;
78004;SDS011;67209;51.698;-0.292;2023-02-28T09:36:03;4.82;;;1.52;;
78004;SDS011;67209;51.698;-0.292;2023-02-28T09:38:29;1.70;;;0.88;;
78004;SDS011;67209;51.698;-0.292;2023-02-28T09:40:56;25.55;;;3.40;;
78004;SDS011;67209;51.698;-0.292;2023-02-28T09:43:25;5.32;;;1.52;;
78004;SDS011;67209;51.698;-0.292;2023-02-28T09:45:56;2.53;;;1.15;;
78004;SDS011;67209;51.698;-0.292;2023-02-28T09:48:27;1.58;;;0.60;;
78004;SDS011;67209;51.698;-0.292;2023-02-28T09:51:03;7.38;;;1.48;;
78004;SDS011;67209;51.698;-0.292;2023-02-28T09:53:33;3.25;;;1.58;;
78004;SDS011;67209;51.698;-0.292;2023-02-28T09:58:28;2.78;;;1.52;;
78004;SDS011;67209;51.698;-0.292;2023-02-28T10:01:03;11.88;;;2.33;;
78004;SDS011;67209;51.698;-0.292;2023-02-28T10:11:16;6.40;;;1.23;;
78004;SDS011;67209;51.698;-0.292;2023-02-28T10:19:38;1.15;;;0.80;;
78004;SDS011;67209;51.698;-0.292;2023-02-28T10:21:44;2.00;;;1.02;;
78004;SDS011;67209;51.698;-0.292;2023-02-28T10:26:59;3.45;;;1.00;;
78004;SDS011;67209;51.698;-0.292;2023-02-28T10:29:28;1.20;;;0.38;;
78004;SDS011;67209;51.698;-0.292;2023-02-28T10:31:58;1.40;;;0.47;;
78004;SDS011;67209;51.698;-0.292;2023-02-28T10:34:24;2.08;;;1.00;;
78004;SDS011;67209;51.698;-0.292;2023-02-28T10:36:50;5.07;;;0.98;;
78004;SDS011;67209;51.698;-0.292;2023-02-28T10:42:02;11.77;;;1.80;;
78004;SDS011;67209;51.698;-0.292;2023-02-28T10:44:28;3.13;;;1.58;;
78004;SDS011;67209;51.698;-0.292;2023-02-28T10:46:54;1.38;;;0.80;;
78004;SDS011;67209;51.698;-0.292;2023-02-28T10:49:22;0.93;;;0.60;;
78004;SDS011;67209;51.698;-0.292;2023-02-28T10:51:49;5.75;;;1.55;;
78004;SDS011;67209;51.698;-0.292;2023-02-28T10:54:18;3.60;;;1.85;;
78004;SDS011;67209;51.698;-0.292;2023-02-28T10:56:44;8.02;;;2.20;;
78004;SDS011;67209;51.698;-0.292;2023-02-28T10:59:26;8.30;;;3.05;;
78004;SDS011;67209;51.698;-0.292;2023-02-28T11:01:52;3.35;;;1.77;;
78004;SDS011;67209;51.698;-0.292;2023-02-28T11:04:20;2.92;;;1.27;;
78004;SDS011;67209;51.698;-0.292;2023-02-28T11:06:58;3.22;;;1.75;;
78004;SDS011;67209;51.698;-0.292;2023-02-28T11:09:34;4.82;;;2.20;;
78004;SDS011;67209;51.698;-0.292;2023-02-28T11:12:02;4.88;;;1.73;;
78004;SDS011;67209;51.698;-0.292;2023-02-28T11:14:28;10.40;;;3.72;;
78004;SDS011;67209;51.698;-0.292;2023-02-28T11:16:56;4.20;;;2.15;;
78004;SDS011;67209;51.698;-0.292;2023-02-28T11:20:07;5.95;;;2.60;;
78004;SDS011;67209;51.698;-0.292;2023-02-28T11:22:18;4.82;;;2.03;;
78004;SDS011;67209;51.698;-0.292;2023-02-28T11:24:46;3.78;;;1.85;;
78004;SDS011;67209;51.698;-0.292;2023-02-28T11:29:58;4.00;;;2.00;;
78004;SDS011;67209;51.698;-0.292;2023-02-28T11:32:25;3.25;;;1.80;;
78004;SDS011;67209;51.698;-0.292;2023-02-28T11:37:47;7.15;;;2.60;;
78004;SDS011;67209;51.698;-0.292;2023-02-28T11:40:17;2.78;;;1.33;;
78004;SDS011;67209;51.698;-0.292;2023-02-28T11:43:26;3.92;;;1.40;;
78004;SDS011;67209;51.698;-0.292;2023-02-28T11:45:39;13.73;;;3.33;;
78004;SDS011;67209;51.698;-0.292;2023-02-28T11:48:28;8.55;;;2.60;;
78004;SDS011;67209;51.698;-0.292;2023-02-28T11:51:00;2.40;;;1.20;;
78004;SDS011;67209;51.698;-0.292;2023-02-28T11:58:33;4.57;;;1.98;;
78004;SDS011;67209;51.698;-0.292;2023-02-28T12:08:42;1.30;;;0.98;;
78004;SDS011;67209;51.698;-0.292;2023-02-28T12:18:50;2.70;;;0.93;;
78004;SDS011;67209;51.698;-0.292;2023-02-28T12:28:50;1.13;;;0.50;;
78004;SDS011;67209;51.698;-0.292;2023-02-28T12:31:23;1.75;;;0.90;;
78004;SDS011;67209;51.698;-0.292;2023-02-28T12:33:52;4.88;;;0.70;;
78004;SDS011;67209;51.698;-0.292;2023-02-28T12:36:19;1.17;;;0.80;;
78004;SDS011;67209;51.698;-0.292;2023-02-28T12:38:58;3.65;;;0.77;;
78004;SDS011;67209;51.698;-0.292;2023-02-28T12:44:00;1.13;;;0.50;;
78004;SDS011;67209;51.698;-0.292;2023-02-28T12:46:46;2.72;;;1.13;;
78004;SDS011;67209;51.698;-0.292;2023-02-28T12:51:52;1.38;;;0.75;;
78004;SDS011;67209;51.698;-0.292;2023-02-28T12:54:25;1.58;;;0.88;;
78004;SDS011;67209;51.698;-0.292;2023-02-28T12:56:56;3.55;;;1.30;;
78004;SDS011;67209;51.698;-0.292;2023-02-28T13:02:00;3.08;;;1.83;;
78004;SDS011;67209;51.698;-0.292;2023-02-28T13:09:41;0.77;;;0.45;;
78004;SDS011;67209;51.698;-0.292;2023-02-28T13:12:17;1.80;;;0.88;;
78004;SDS011;67209;51.698;-0.292;2023-02-28T13:14:43;2.45;;;0.43;;
78004;SDS011;67209;51.698;-0.292;2023-02-28T13:19:45;1.52;;;0.93;;
78004;SDS011;67209;51.698;-0.292;2023-02-28T13:24:49;0.57;;;0.30;;
78004;SDS011;67209;51.698;-0.292;2023-02-28T13:27:38;0.82;;;0.38;;
78004;SDS011;67209;51.698;-0.292;2023-02-28T13:33:15;0.40;;;0.20;;
78004;SDS011;67209;51.698;-0.292;2023-02-28T13:35:37;0.57;;;0.20;;
78004;SDS011;67209;51.698;-0.292;2023-02-28T13:38:09;0.68;;;0.40;;
78004;SDS011;67209;51.698;-0.292;2023-02-28T13:40:39;0.28;;;0.20;;
78004;SDS011;67209;51.698;-0.292;2023-02-28T13:43:07;0.82;;;0.17;;
78004;SDS011;67209;51.698;-0.292;2023-02-28T13:45:33;1.02;;;0.30;;
78004;SDS011;67209;51.698;-0.292;2023-02-28T13:48:16;0.32;;;0.10;;
78004;SDS011;67209;51.698;-0.292;2023-02-28T13:50:44;1.85;;;0.38;;
78004;SDS011;67209;51.698;-0.292;2023-02-28T14:08:42;0.85;;;0.50;;
78004;SDS011;67209;51.698;-0.292;2023-02-28T14:11:23;0.70;;;0.40;;
78004;SDS011;67209;51.698;-0.292;2023-02-28T14:13:49;0.30;;;0.10;;
78004;SDS011;67209;51.698;-0.292;2023-02-28T14:16:17;0.82;;;0.10;;
78004;SDS011;67209;51.698;-0.292;2023-02-28T14:21:25;0.95;;;0.50;;
78004;SDS011;67209;51.698;-0.292;2023-02-28T14:23:59;1.33;;;0.63;;
78004;SDS011;67209;51.698;-0.292;2023-02-28T14:26:43;2.65;;;0.50;;
78004;SDS011;67209;51.698;-0.292;2023-02-28T14:29:52;2.45;;;0.38;;
78004;SDS011;67209;51.698;-0.292;2023-02-28T14:32:06;2.75;;;0.35;;
78004;SDS011;67209;51.698;-0.292;2023-02-28T14:34:39;0.63;;;0.30;;
78004;SDS011;67209;51.698;-0.292;2023-02-28T14:37:09;2.15;;;0.70;;
78004;SDS011;67209;51.698;-0.292;2023-02-28T14:39:36;1.10;;;0.73;;
78004;SDS011;67209;51.698;-0.292;2023-02-28T14:42:24;1.90;;;1.13;;
78004;SDS011;67209;51.698;-0.292;2023-02-28T14:44:53;0.50;;;0.22;;
78004;SDS011;67209;51.698;-0.292;2023-02-28T14:47:21;0.77;;;0.38;;
78004;SDS011;67209;51.698;-0.292;2023-02-28T14:49:49;0.80;;;0.43;;
78004;SDS011;67209;51.698;-0.292;2023-02-28T14:52:22;1.17;;;0.70;;
78004;SDS011;67209;51.698;-0.292;2023-02-28T14:54:55;2.13;;;0.32;;
78004;SDS011;67209;51.698;-0.292;2023-02-28T14:57:24;3.10;;;1.00;;
78004;SDS011;67209;51.698;-0.292;2023-02-28T14:59:57;2.33;;;1.08;;
78004;SDS011;67209;51.698;-0.292;2023-02-28T15:02:24;1.25;;;0.75;;
78004;SDS011;67209;51.698;-0.292;2023-02-28T15:04:54;2.05;;;0.77;;
78004;SDS011;67209;51.698;-0.292;2023-02-28T15:07:20;1.60;;;0.38;;
78004;SDS011;67209;51.698;-0.292;2023-02-28T15:12:35;2.60;;;0.63;;
78004;SDS011;67209;51.698;-0.292;2023-02-28T15:15:01;2.20;;;0.47;;
78004;SDS011;67209;51.698;-0.292;2023-02-28T15:17:27;0.60;;;0.38;;
78004;SDS011;67209;51.698;-0.292;2023-02-28T15:19:53;2.30;;;0.32;;
78004;SDS011;67209;51.698;-0.292;2023-02-28T15:22:23;1.38;;;0.40;;
78004;SDS011;67209;51.698;-0.292;2023-02-28T15:24:52;1.45;;;0.20;;
78004;SDS011;67209;51.698;-0.292;2023-02-28T15:27:22;2.50;;;0.13;;
78004;SDS011;67209;51.698;-0.292;2023-02-28T15:29:51;1.20;;;0.50;;
78004;SDS011;67209;51.698;-0.292;2023-02-28T15:34:50;1.17;;;0.57;;
78004;SDS011;67209;51.698;-0.292;2023-02-28T15:37:26;0.25;;;0.20;;
78004;SDS011;67209;51.698;-0.292;2023-02-28T15:42:19;1.48;;;0.45;;
78004;SDS011;67209;51.698;-0.292;2023-02-28T15:44:46;0.45;;;0.32;;
78004;SDS011;67209;51.698;-0.292;2023-02-28T15:47:22;2.53;;;0.68;;
78004;SDS011;67209;51.698;-0.292;2023-02-28T15:49:55;1.10;;;0.30;;
78004;SDS011;67209;51.698;-0.292;2023-02-28T15:52:24;1.15;;;0.35;;
78004;SDS011;67209;51.698;-0.292;2023-02-28T15:54:52;0.40;;;0.20;;
78004;SDS011;67209;51.698;-0.292;2023-02-28T15:57:20;1.48;;;0.40;;
78004;SDS011;67209;51.698;-0.292;2023-02-28T15:59:51;0.50;;;0.30;;
78004;SDS011;67209;51.698;-0.292;2023-02-28T16:02:19;1.67;;;0.30;;
78004;SDS011;67209;51.698;-0.292;2023-02-28T16:07:21;0.47;;;0.30;;
78004;SDS011;67209;51.698;-0.292;2023-02-28T16:09:47;0.30;;;0.20;;
78004;SDS011;67209;51.698;-0.292;2023-02-28T16:12:13;0.45;;;0.30;;
78004;SDS011;67209;51.698;-0.292;2023-02-28T16:14:39;2.53;;;0.17;;
78004;SDS011;67209;51.698;-0.292;2023-02-28T16:17:06;0.25;;;0.10;;
78004;SDS011;67209;51.698;-0.292;2023-02-28T16:19:37;0.20;;;0.10;;
78004;SDS011;67209;51.698;-0.292;2023-02-28T16:22:03;0.47;;;0.20;;
78004;SDS011;67209;51.698;-0.292;2023-02-28T16:24:29;1.10;;;0.30;;
78004;SDS011;67209;51.698;-0.292;2023-02-28T16:26:55;0.60;;;0.35;;
78004;SDS011;67209;51.698;-0.292;2023-02-28T16:31:49;2.72;;;0.20;;
78004;SDS011;67209;51.698;-0.292;2023-02-28T16:34:15;0.17;;;0.10;;
78004;SDS011;67209;51.698;-0.292;2023-02-28T16:36:41;0.45;;;0.22;;
78004;SDS011;67209;51.698;-0.292;2023-02-28T16:39:07;1.77;;;0.32;;
78004;SDS011;67209;51.698;-0.292;2023-02-28T16:41:33;0.30;;;0.20;;
78004;SDS011;67209;51.698;-0.292;2023-02-28T16:44:00;0.35;;;0.20;;
78004;SDS011;67209;51.698;-0.292;2023-02-28T16:46:35;1.83;;;0.30;;
78004;SDS011;67209;51.698;-0.292;2023-02-28T16:49:01;3.85;;;0.47;;
78004;SDS011;67209;51.698;-0.292;2023-02-28T16:51:27;0.10;;;0.10;;
78004;SDS011;67209;51.698;-0.292;2023-02-28T16:53:53;0.28;;;0.10;;